sensor_id;sensor_type;location;lat;lon;timestamp;pressure;altitude;pressure_sealevel;temperature;humidity
61039;BME280;46919;45.816;3.104;2022-11-15T00:00:15;97529.09;;;10.60;100.00
61039;BME280;46919;45.816;3.104;2022-11-15T00:02:40;97536.97;;;10.62;100.00
61039;BME280;46919;45.816;3.104;2022-11-15T00:05:06;97529.91;;;10.61;100.00
61039;BME280;46919;45.816;3.104;2022-11-15T00:07:31;97518.84;;;10.62;100.00
61039;BME280;46919;45.816;3.104;2022-11-15T00:09:56;97513.09;;;10.59;100.00
61039;BME280;46919;45.816;3.104;2022-11-15T00:12:22;97508.97;;;10.56;100.00
61039;BME280;46919;45.816;3.104;2022-11-15T00:14:47;97518.16;;;10.55;100.00
61039;BME280;46919;45.816;3.104;2022-11-15T00:17:12;97512.19;;;10.53;100.00
61039;BME280;46919;45.816;3.104;2022-11-15T00:19:38;97502.88;;;10.49;100.00
61039;BME280;46919;45.816;3.104;2022-11-15T00:22:03;97495.00;;;10.47;100.00
61039;BME280;46919;45.816;3.104;2022-11-15T00:24:28;97492.06;;;10.49;100.00
61039;BME280;46919;45.816;3.104;2022-11-15T00:26:54;97488.91;;;10.52;100.00
61039;BME280;46919;45.816;3.104;2022-11-15T00:29:19;97487.94;;;10.46;100.00
61039;BME280;46919;45.816;3.104;2022-11-15T00:31:44;97485.00;;;10.48;100.00
61039;BME280;46919;45.816;3.104;2022-11-15T00:34:10;97482.94;;;10.50;100.00
61039;BME280;46919;45.816;3.104;2022-11-15T00:36:36;97476.22;;;10.52;100.00
61039;BME280;46919;45.816;3.104;2022-11-15T00:39:03;97478.69;;;10.54;100.00
61039;BME280;46919;45.816;3.104;2022-11-15T00:41:29;97480.81;;;10.52;100.00
61039;BME280;46919;45.816;3.104;2022-11-15T00:43:55;97481.28;;;10.49;100.00
61039;BME280;46919;45.816;3.104;2022-11-15T00:46:20;97484.19;;;10.36;100.00
61039;BME280;46919;45.816;3.104;2022-11-15T00:48:46;97485.69;;;10.31;100.00
61039;BME280;46919;45.816;3.104;2022-11-15T00:51:11;97482.09;;;10.38;100.00
61039;BME280;46919;45.816;3.104;2022-11-15T00:53:36;97487.59;;;10.43;100.00
61039;BME280;46919;45.816;3.104;2022-11-15T00:56:02;97482.19;;;10.43;100.00
61039;BME280;46919;45.816;3.104;2022-11-15T00:58:27;97478.06;;;10.40;100.00
61039;BME280;46919;45.816;3.104;2022-11-15T01:00:53;97472.31;;;10.37;100.00
61039;BME280;46919;45.816;3.104;2022-11-15T01:03:18;97473.63;;;10.34;100.00
61039;BME280;46919;45.816;3.104;2022-11-15T01:05:43;97472.78;;;10.33;100.00
61039;BME280;46919;45.816;3.104;2022-11-15T01:08:13;97466.19;;;10.29;100.00
61039;BME280;46919;45.816;3.104;2022-11-15T01:10:39;97458.00;;;10.36;100.00
61039;BME280;46919;45.816;3.104;2022-11-15T01:13:05;97438.81;;;10.26;100.00
61039;BME280;46919;45.816;3.104;2022-11-15T01:15:30;97445.53;;;10.23;100.00
61039;BME280;46919;45.816;3.104;2022-11-15T01:17:55;97438.69;;;10.21;100.00
61039;BME280;46919;45.816;3.104;2022-11-15T01:20:21;97435.88;;;10.15;100.00
61039;BME280;46919;45.816;3.104;2022-11-15T01:22:46;97439.28;;;10.23;100.00
61039;BME280;46919;45.816;3.104;2022-11-15T01:25:11;97436.94;;;10.26;100.00
61039;BME280;46919;45.816;3.104;2022-11-15T01:27:37;97427.66;;;10.22;100.00
61039;BME280;46919;45.816;3.104;2022-11-15T01:30:03;97426.00;;;10.09;100.00
61039;BME280;46919;45.816;3.104;2022-11-15T01:32:29;97420.84;;;10.08;100.00
61039;BME280;46919;45.816;3.104;2022-11-15T01:34:54;97422.38;;;10.15;100.00
61039;BME280;46919;45.816;3.104;2022-11-15T01:37:20;97423.53;;;10.08;100.00
61039;BME280;46919;45.816;3.104;2022-11-15T01:39:45;97422.34;;;10.04;100.00
61039;BME280;46919;45.816;3.104;2022-11-15T01:42:13;97415.22;;;10.09;100.00
61039;BME280;46919;45.816;3.104;2022-11-15T01:44:50;97406.28;;;10.09;100.00
61039;BME280;46919;45.816;3.104;2022-11-15T01:52:24;97399.94;;;9.91;100.00
61039;BME280;46919;45.816;3.104;2022-11-15T01:55:25;97400.28;;;9.95;100.00
61039;BME280;46919;45.816;3.104;2022-11-15T01:57:45;97385.25;;;9.87;100.00
61039;BME280;46919;45.816;3.104;2022-11-15T02:00:12;97381.03;;;9.91;100.00
61039;BME280;46919;45.816;3.104;2022-11-15T02:02:38;97378.09;;;9.81;100.00
61039;BME280;46919;45.816;3.104;2022-11-15T02:05:04;97369.28;;;9.74;100.00
61039;BME280;46919;45.816;3.104;2022-11-15T02:07:31;97369.63;;;9.77;100.00
61039;BME280;46919;45.816;3.104;2022-11-15T02:10:06;97372.22;;;9.84;100.00
61039;BME280;46919;45.816;3.104;2022-11-15T02:12:32;97361.06;;;9.81;100.00
61039;BME280;46919;45.816;3.104;2022-11-15T02:14:58;97359.06;;;9.76;100.00
61039;BME280;46919;45.816;3.104;2022-11-15T02:20:20;97346.03;;;9.85;100.00
61039;BME280;46919;45.816;3.104;2022-11-15T02:29:23;97327.63;;;9.70;100.00
61039;BME280;46919;45.816;3.104;2022-11-15T02:32:18;97322.34;;;9.63;100.00
61039;BME280;46919;45.816;3.104;2022-11-15T02:35:02;97311.06;;;9.54;100.00
61039;BME280;46919;45.816;3.104;2022-11-15T02:37:55;97303.06;;;9.48;100.00
61039;BME280;46919;45.816;3.104;2022-11-15T02:41:20;97300.25;;;9.42;100.00
61039;BME280;46919;45.816;3.104;2022-11-15T02:43:47;97294.03;;;9.42;100.00
61039;BME280;46919;45.816;3.104;2022-11-15T02:49:28;97279.38;;;9.50;100.00
61039;BME280;46919;45.816;3.104;2022-11-15T02:51:55;97275.06;;;9.49;100.00
61039;BME280;46919;45.816;3.104;2022-11-15T02:54:27;97289.00;;;9.46;100.00
61039;BME280;46919;45.816;3.104;2022-11-15T02:56:57;97273.97;;;9.38;100.00
61039;BME280;46919;45.816;3.104;2022-11-15T03:02:25;97270.94;;;9.34;100.00
61039;BME280;46919;45.816;3.104;2022-11-15T03:07:40;97253.78;;;9.29;100.00
61039;BME280;46919;45.816;3.104;2022-11-15T03:10:19;97252.13;;;9.28;100.00
61039;BME280;46919;45.816;3.104;2022-11-15T03:13:20;97235.84;;;9.22;100.00
61039;BME280;46919;45.816;3.104;2022-11-15T03:16:04;97255.78;;;9.21;100.00
61039;BME280;46919;45.816;3.104;2022-11-15T03:18:36;97245.47;;;9.18;100.00
61039;BME280;46919;45.816;3.104;2022-11-15T03:21:05;97243.94;;;9.22;100.00
61039;BME280;46919;45.816;3.104;2022-11-15T03:23:33;97237.50;;;9.23;100.00
61039;BME280;46919;45.816;3.104;2022-11-15T03:26:00;97249.09;;;9.24;100.00
61039;BME280;46919;45.816;3.104;2022-11-15T03:28:35;97244.31;;;9.38;100.00
61039;BME280;46919;45.816;3.104;2022-11-15T03:31:02;97233.97;;;9.47;100.00
61039;BME280;46919;45.816;3.104;2022-11-15T03:33:51;97238.69;;;9.51;100.00
61039;BME280;46919;45.816;3.104;2022-11-15T03:36:20;97234.22;;;9.45;100.00
61039;BME280;46919;45.816;3.104;2022-11-15T03:38:47;97233.19;;;9.46;100.00
61039;BME280;46919;45.816;3.104;2022-11-15T03:41:20;97228.13;;;9.38;100.00
61039;BME280;46919;45.816;3.104;2022-11-15T03:43:59;97227.19;;;9.32;100.00
61039;BME280;46919;45.816;3.104;2022-11-15T03:46:36;97225.31;;;9.33;100.00
61039;BME280;46919;45.816;3.104;2022-11-15T03:49:27;97225.31;;;9.33;100.00
61039;BME280;46919;45.816;3.104;2022-11-15T03:51:57;97211.84;;;9.33;100.00
61039;BME280;46919;45.816;3.104;2022-11-15T03:54:22;97216.66;;;9.42;100.00
61039;BME280;46919;45.816;3.104;2022-11-15T03:56:48;97207.47;;;9.43;100.00
61039;BME280;46919;45.816;3.104;2022-11-15T03:59:13;97209.94;;;9.33;100.00
61039;BME280;46919;45.816;3.104;2022-11-15T04:01:38;97201.06;;;9.33;100.00
61039;BME280;46919;45.816;3.104;2022-11-15T04:04:04;97205.50;;;9.39;100.00
61039;BME280;46919;45.816;3.104;2022-11-15T04:06:29;97209.94;;;9.33;100.00
61039;BME280;46919;45.816;3.104;2022-11-15T04:08:55;97192.13;;;9.32;100.00
61039;BME280;46919;45.816;3.104;2022-11-15T04:11:20;97196.13;;;9.41;100.00
61039;BME280;46919;45.816;3.104;2022-11-15T04:13:45;97199.75;;;9.47;100.00
61039;BME280;46919;45.816;3.104;2022-11-15T04:16:11;97193.91;;;9.50;100.00
61039;BME280;46919;45.816;3.104;2022-11-15T04:18:36;97191.22;;;9.50;100.00
61039;BME280;46919;45.816;3.104;2022-11-15T04:21:02;97189.78;;;9.48;100.00
61039;BME280;46919;45.816;3.104;2022-11-15T04:23:46;97184.06;;;9.44;100.00
61039;BME280;46919;45.816;3.104;2022-11-15T04:26:30;97191.91;;;9.46;100.00
61039;BME280;46919;45.816;3.104;2022-11-15T04:28:56;97192.38;;;9.42;100.00
61039;BME280;46919;45.816;3.104;2022-11-15T04:31:40;97191.31;;;9.32;100.00
61039;BME280;46919;45.816;3.104;2022-11-15T04:34:05;97187.09;;;9.24;100.00
61039;BME280;46919;45.816;3.104;2022-11-15T04:36:30;97185.44;;;9.23;100.00
61039;BME280;46919;45.816;3.104;2022-11-15T04:39:15;97178.19;;;9.23;100.00
61039;BME280;46919;45.816;3.104;2022-11-15T04:41:40;97178.19;;;9.23;100.00
61039;BME280;46919;45.816;3.104;2022-11-15T04:44:05;97180.19;;;9.28;100.00
61039;BME280;46919;45.816;3.104;2022-11-15T04:46:31;97175.59;;;9.29;100.00
61039;BME280;46919;45.816;3.104;2022-11-15T04:48:56;97175.59;;;9.29;100.00
61039;BME280;46919;45.816;3.104;2022-11-15T04:51:22;97173.72;;;9.29;100.00
61039;BME280;46919;45.816;3.104;2022-11-15T04:53:47;97168.00;;;9.37;100.00
61039;BME280;46919;45.816;3.104;2022-11-15T04:56:12;97164.31;;;9.43;100.00
61039;BME280;46919;45.816;3.104;2022-11-15T04:58:38;97162.94;;;9.41;100.00
61039;BME280;46919;45.816;3.104;2022-11-15T05:01:09;97162.69;;;9.31;100.00
61039;BME280;46919;45.816;3.104;2022-11-15T05:03:34;97158.22;;;9.24;100.00
61039;BME280;46919;45.816;3.104;2022-11-15T05:06:19;97158.34;;;9.18;100.00
61039;BME280;46919;45.816;3.104;2022-11-15T05:08:44;97153.19;;;9.16;100.00
61039;BME280;46919;45.816;3.104;2022-11-15T05:11:09;97151.56;;;9.15;100.00
61039;BME280;46919;45.816;3.104;2022-11-15T05:13:35;97154.28;;;9.15;100.00
61039;BME280;46919;45.816;3.104;2022-11-15T05:16:00;97149.09;;;9.14;100.00
61039;BME280;46919;45.816;3.104;2022-11-15T05:18:25;97151.81;;;9.14;100.00
61039;BME280;46919;45.816;3.104;2022-11-15T05:20:51;97139.03;;;9.09;100.00
61039;BME280;46919;45.816;3.104;2022-11-15T05:23:16;97136.91;;;9.11;100.00
61039;BME280;46919;45.816;3.104;2022-11-15T05:25:42;97138.56;;;9.12;100.00
61039;BME280;46919;45.816;3.104;2022-11-15T05:28:07;97123.91;;;9.20;100.00
61039;BME280;46919;45.816;3.104;2022-11-15T05:30:32;97120.97;;;9.21;100.00
61039;BME280;46919;45.816;3.104;2022-11-15T05:32:58;97111.81;;;9.22;100.00
61039;BME280;46919;45.816;3.104;2022-11-15T05:35:41;97108.88;;;9.24;100.00
61039;BME280;46919;45.816;3.104;2022-11-15T05:38:07;97103.16;;;9.20;100.00
61039;BME280;46919;45.816;3.104;2022-11-15T05:40:33;97108.44;;;9.15;100.00
61039;BME280;46919;45.816;3.104;2022-11-15T05:42:59;97095.44;;;9.12;100.00
61039;BME280;46919;45.816;3.104;2022-11-15T05:45:26;97094.34;;;9.13;100.00
61039;BME280;46919;45.816;3.104;2022-11-15T05:47:54;97093.31;;;9.14;100.00
61039;BME280;46919;45.816;3.104;2022-11-15T05:50:21;97083.00;;;9.11;100.00
61039;BME280;46919;45.816;3.104;2022-11-15T05:52:46;97090.16;;;9.17;100.00
61039;BME280;46919;45.816;3.104;2022-11-15T05:55:12;97087.09;;;9.14;100.00
61039;BME280;46919;45.816;3.104;2022-11-15T05:57:38;97078.66;;;9.10;100.00
61039;BME280;46919;45.816;3.104;2022-11-15T06:00:04;97083.00;;;9.11;100.00
61039;BME280;46919;45.816;3.104;2022-11-15T06:02:30;97089.19;;;9.12;100.00
61039;BME280;46919;45.816;3.104;2022-11-15T06:04:55;97085.78;;;9.16;100.00
61039;BME280;46919;45.816;3.104;2022-11-15T06:07:21;97080.41;;;9.16;100.00
61039;BME280;46919;45.816;3.104;2022-11-15T06:09:46;97082.53;;;9.14;100.00
61039;BME280;46919;45.816;3.104;2022-11-15T06:12:11;97073.72;;;9.19;100.00
61039;BME280;46919;45.816;3.104;2022-11-15T06:14:37;97085.78;;;9.16;100.00
61039;BME280;46919;45.816;3.104;2022-11-15T06:17:02;97085.66;;;9.23;100.00
61039;BME280;46919;45.816;3.104;2022-11-15T06:19:27;97078.75;;;9.27;100.00
61039;BME280;46919;45.816;3.104;2022-11-15T06:21:58;97076.16;;;9.32;100.00
61039;BME280;46919;45.816;3.104;2022-11-15T06:24:23;97073.59;;;9.25;100.00
61039;BME280;46919;45.816;3.104;2022-11-15T06:26:48;97069.41;;;9.30;100.00
61039;BME280;46919;45.816;3.104;2022-11-15T06:29:14;97075.25;;;9.27;100.00
61039;BME280;46919;45.816;3.104;2022-11-15T06:31:39;97074.78;;;9.18;100.00
61039;BME280;46919;45.816;3.104;2022-11-15T06:34:04;97067.88;;;9.10;100.00
61039;BME280;46919;45.816;3.104;2022-11-15T06:36:30;97073.88;;;9.12;100.00
61039;BME280;46919;45.816;3.104;2022-11-15T06:38:56;97075.16;;;9.10;100.00
61039;BME280;46919;45.816;3.104;2022-11-15T06:41:21;97072.56;;;9.15;100.00
61039;BME280;46919;45.816;3.104;2022-11-15T06:43:47;97073.88;;;9.12;100.00
61039;BME280;46919;45.816;3.104;2022-11-15T06:46:12;97071.84;;;9.19;100.00
61039;BME280;46919;45.816;3.104;2022-11-15T06:48:38;97071.50;;;9.16;100.00
61039;BME280;46919;45.816;3.104;2022-11-15T06:51:04;97066.78;;;9.23;100.00
61039;BME280;46919;45.816;3.104;2022-11-15T06:53:30;97063.19;;;9.17;100.00
61039;BME280;46919;45.816;3.104;2022-11-15T06:56:01;97065.31;;;9.15;100.00
61039;BME280;46919;45.816;3.104;2022-11-15T06:58:26;97063.41;;;9.16;100.00
61039;BME280;46919;45.816;3.104;2022-11-15T07:00:52;97058.84;;;9.28;100.00
61039;BME280;46919;45.816;3.104;2022-11-15T07:03:17;97059.19;;;9.32;100.00
61039;BME280;46919;45.816;3.104;2022-11-15T07:05:51;97065.84;;;9.41;100.00
61039;BME280;46919;45.816;3.104;2022-11-15T07:08:16;97066.66;;;9.41;100.00
61039;BME280;46919;45.816;3.104;2022-11-15T07:10:41;97061.84;;;9.43;100.00
61039;BME280;46919;45.816;3.104;2022-11-15T07:13:07;97064.19;;;9.40;100.00
61039;BME280;46919;45.816;3.104;2022-11-15T07:15:32;97066.78;;;9.35;100.00
61039;BME280;46919;45.816;3.104;2022-11-15T07:18:00;97067.03;;;9.33;100.00
61039;BME280;46919;45.816;3.104;2022-11-15T07:20:26;97066.78;;;9.35;100.00
61039;BME280;46919;45.816;3.104;2022-11-15T07:22:59;97075.47;;;9.37;100.00
61039;BME280;46919;45.816;3.104;2022-11-15T07:25:25;97064.78;;;9.42;100.00
61039;BME280;46919;45.816;3.104;2022-11-15T07:27:57;97062.31;;;9.52;100.00
61039;BME280;46919;45.816;3.104;2022-11-15T07:30:23;97076.81;;;9.63;100.00
61039;BME280;46919;45.816;3.104;2022-11-15T07:32:56;97068.97;;;9.61;100.00
61039;BME280;46919;45.816;3.104;2022-11-15T07:35:22;97073.66;;;9.66;100.00
61039;BME280;46919;45.816;3.104;2022-11-15T07:37:59;97064.59;;;9.72;100.00
61039;BME280;46919;45.816;3.104;2022-11-15T07:40:26;97060.75;;;9.68;100.00
61039;BME280;46919;45.816;3.104;2022-11-15T07:42:52;97066.69;;;9.70;100.00
61039;BME280;46919;45.816;3.104;2022-11-15T07:45:18;97071.38;;;9.75;100.00
61039;BME280;46919;45.816;3.104;2022-11-15T07:47:50;97074.78;;;9.82;100.00
61039;BME280;46919;45.816;3.104;2022-11-15T07:50:16;97071.97;;;9.77;100.00
61039;BME280;46919;45.816;3.104;2022-11-15T07:52:42;97063.97;;;9.82;100.00
61039;BME280;46919;45.816;3.104;2022-11-15T07:55:08;97066.19;;;9.85;100.00
61039;BME280;46919;45.816;3.104;2022-11-15T07:57:33;97063.59;;;9.90;100.00
61039;BME280;46919;45.816;3.104;2022-11-15T07:59:58;97068.41;;;9.88;100.00
61039;BME280;46919;45.816;3.104;2022-11-15T08:02:24;97063.13;;;9.93;100.00
61039;BME280;46919;45.816;3.104;2022-11-15T08:04:49;97062.63;;;9.96;100.00
61039;BME280;46919;45.816;3.104;2022-11-15T08:07:15;97055.09;;;9.98;100.00
61039;BME280;46919;45.816;3.104;2022-11-15T08:09:40;97061.66;;;10.03;100.00
61039;BME280;46919;45.816;3.104;2022-11-15T08:12:06;97056.69;;;10.11;100.00
61039;BME280;46919;45.816;3.104;2022-11-15T08:14:31;97053.59;;;10.20;100.00
61039;BME280;46919;45.816;3.104;2022-11-15T08:16:57;97041.34;;;10.29;100.00
61039;BME280;46919;45.816;3.104;2022-11-15T08:19:22;97041.78;;;10.38;100.00
61039;BME280;46919;45.816;3.104;2022-11-15T08:21:47;97047.28;;;10.43;100.00
61039;BME280;46919;45.816;3.104;2022-11-15T08:24:13;97052.69;;;10.43;100.00
61039;BME280;46919;45.816;3.104;2022-11-15T08:26:39;97052.69;;;10.43;100.00
61039;BME280;46919;45.816;3.104;2022-11-15T08:29:05;97050.06;;;10.48;100.00
61039;BME280;46919;45.816;3.104;2022-11-15T08:31:30;97046.06;;;10.50;100.00
61039;BME280;46919;45.816;3.104;2022-11-15T08:33:56;97059.31;;;10.52;100.00
61039;BME280;46919;45.816;3.104;2022-11-15T08:36:21;97056.38;;;10.54;100.00
61039;BME280;46919;45.816;3.104;2022-11-15T08:38:46;97042.13;;;10.58;100.00
61039;BME280;46919;45.816;3.104;2022-11-15T08:41:16;97037.38;;;10.65;100.00
61039;BME280;46919;45.816;3.104;2022-11-15T08:43:45;97020.41;;;10.70;100.00
61039;BME280;46919;45.816;3.104;2022-11-15T08:46:12;97030.25;;;10.76;100.00
61039;BME280;46919;45.816;3.104;2022-11-15T08:48:38;97018.44;;;10.82;100.00
61039;BME280;46919;45.816;3.104;2022-11-15T08:51:03;97023.66;;;10.89;100.00
61039;BME280;46919;45.816;3.104;2022-11-15T08:53:29;97019.41;;;10.93;100.00
61039;BME280;46919;45.816;3.104;2022-11-15T08:55:54;97022.19;;;10.98;100.00
61039;BME280;46919;45.816;3.104;2022-11-15T08:58:20;97023.34;;;11.02;100.00
61039;BME280;46919;45.816;3.104;2022-11-15T09:00:45;97015.28;;;11.08;100.00
61039;BME280;46919;45.816;3.104;2022-11-15T09:03:11;97023.47;;;11.13;100.00
61039;BME280;46919;45.816;3.104;2022-11-15T09:05:36;97033.34;;;11.24;100.00
61039;BME280;46919;45.816;3.104;2022-11-15T09:08:02;97035.38;;;11.34;100.00
61039;BME280;46919;45.816;3.104;2022-11-15T09:10:28;97019.22;;;11.39;100.00
61039;BME280;46919;45.816;3.104;2022-11-15T09:12:53;97012.47;;;11.41;100.00
61039;BME280;46919;45.816;3.104;2022-11-15T09:15:19;97007.66;;;11.44;100.00
61039;BME280;46919;45.816;3.104;2022-11-15T09:17:45;97009.84;;;11.47;100.00
61039;BME280;46919;45.816;3.104;2022-11-15T09:20:10;96996.88;;;11.49;100.00
61039;BME280;46919;45.816;3.104;2022-11-15T09:22:36;97001.19;;;11.50;100.00
61039;BME280;46919;45.816;3.104;2022-11-15T09:25:04;97007.19;;;11.52;100.00
61039;BME280;46919;45.816;3.104;2022-11-15T09:27:30;97009.41;;;11.55;100.00
61039;BME280;46919;45.816;3.104;2022-11-15T09:29:55;97014.31;;;11.58;100.00
61039;BME280;46919;45.816;3.104;2022-11-15T09:32:21;97012.47;;;11.64;100.00
61039;BME280;46919;45.816;3.104;2022-11-15T09:34:48;97004.66;;;11.67;100.00
61039;BME280;46919;45.816;3.104;2022-11-15T09:37:14;97006.03;;;11.70;100.00
61039;BME280;46919;45.816;3.104;2022-11-15T09:39:39;97000.63;;;11.70;100.00
61039;BME280;46919;45.816;3.104;2022-11-15T09:50:06;96976.06;;;11.76;100.00
61039;BME280;46919;45.816;3.104;2022-11-15T09:52:34;96978.78;;;11.76;100.00
61039;BME280;46919;45.816;3.104;2022-11-15T09:55:01;96969.03;;;11.75;100.00
61039;BME280;46919;45.816;3.104;2022-11-15T09:57:32;96965.56;;;11.80;100.00
61039;BME280;46919;45.816;3.104;2022-11-15T10:00:22;96964.84;;;11.90;100.00
61039;BME280;46919;45.816;3.104;2022-11-15T10:03:15;96975.50;;;11.96;100.00
61039;BME280;46919;45.816;3.104;2022-11-15T10:05:49;96967.19;;;12.08;100.00
61039;BME280;46919;45.816;3.104;2022-11-15T10:08:40;96972.09;;;12.11;100.00
61039;BME280;46919;45.816;3.104;2022-11-15T10:11:26;96972.72;;;12.19;100.00
61039;BME280;46919;45.816;3.104;2022-11-15T10:13:56;96968.97;;;12.25;100.00
61039;BME280;46919;45.816;3.104;2022-11-15T10:24:42;96948.44;;;12.72;100.00
61039;BME280;46919;45.816;3.104;2022-11-15T10:27:13;96940.03;;;12.73;100.00
61039;BME280;46919;45.816;3.104;2022-11-15T10:29:50;96924.91;;;12.77;100.00
61039;BME280;46919;45.816;3.104;2022-11-15T10:32:17;96924.38;;;12.80;100.00
61039;BME280;46919;45.816;3.104;2022-11-15T10:34:43;96916.25;;;12.85;100.00
61039;BME280;46919;45.816;3.104;2022-11-15T10:37:09;96922.28;;;12.93;100.00
61039;BME280;46919;45.816;3.104;2022-11-15T10:39:34;96922.03;;;12.99;100.00
61039;BME280;46919;45.816;3.104;2022-11-15T10:42:26;96905.50;;;13.06;100.00
61039;BME280;46919;45.816;3.104;2022-11-15T10:44:51;96906.63;;;13.10;100.00
61039;BME280;46919;45.816;3.104;2022-11-15T10:47:28;96895.78;;;13.20;100.00
61039;BME280;46919;45.816;3.104;2022-11-15T10:50:26;96887.13;;;13.29;100.00
61039;BME280;46919;45.816;3.104;2022-11-15T10:52:52;96891.78;;;13.38;100.00
61039;BME280;46919;45.816;3.104;2022-11-15T10:57:51;96889.94;;;13.49;100.00
61039;BME280;46919;45.816;3.104;2022-11-15T11:02:57;96878.00;;;13.61;100.00
61039;BME280;46919;45.816;3.104;2022-11-15T11:10:52;96869.59;;;13.52;100.00
61039;BME280;46919;45.816;3.104;2022-11-15T11:13:27;96868.50;;;13.53;100.00
61039;BME280;46919;45.816;3.104;2022-11-15T11:16:20;96863.63;;;13.50;100.00
61039;BME280;46919;45.816;3.104;2022-11-15T11:22:01;96848.94;;;13.51;100.00
61039;BME280;46919;45.816;3.104;2022-11-15T11:24:44;96850.03;;;13.60;100.00
61039;BME280;46919;45.816;3.104;2022-11-15T11:27:22;96849.78;;;13.67;100.00
61039;BME280;46919;45.816;3.104;2022-11-15T11:32:40;96838.38;;;13.75;100.00
61039;BME280;46919;45.816;3.104;2022-11-15T11:35:22;96835.66;;;13.75;100.00
61039;BME280;46919;45.816;3.104;2022-11-15T11:37:54;96825.63;;;13.75;100.00
61039;BME280;46919;45.816;3.104;2022-11-15T11:40:51;96816.41;;;13.82;100.00
61039;BME280;46919;45.816;3.104;2022-11-15T11:49:09;96810.94;;;13.92;100.00
61039;BME280;46919;45.816;3.104;2022-11-15T11:51:49;96805.50;;;13.97;100.00
61039;BME280;46919;45.816;3.104;2022-11-15T11:54:22;96809.03;;;14.03;100.00
61039;BME280;46919;45.816;3.104;2022-11-15T11:56:48;96801.13;;;14.11;100.00
61039;BME280;46919;45.816;3.104;2022-11-15T11:59:21;96795.72;;;14.17;100.00
61039;BME280;46919;45.816;3.104;2022-11-15T12:01:48;96790.25;;;14.22;100.00
61039;BME280;46919;45.816;3.104;2022-11-15T12:04:19;96794.56;;;14.33;100.00
61039;BME280;46919;45.816;3.104;2022-11-15T12:06:57;96788.56;;;14.41;100.00
61039;BME280;46919;45.816;3.104;2022-11-15T12:09:35;96791.56;;;14.45;100.00
61039;BME280;46919;45.816;3.104;2022-11-15T12:12:12;96786.94;;;14.45;100.00
61039;BME280;46919;45.816;3.104;2022-11-15T12:14:51;96778.25;;;14.43;100.00
61039;BME280;46919;45.816;3.104;2022-11-15T12:17:24;96776.88;;;14.46;100.00
61039;BME280;46919;45.816;3.104;2022-11-15T12:19:49;96779.06;;;14.44;100.00
61039;BME280;46919;45.816;3.104;2022-11-15T12:22:22;96776.63;;;14.42;100.00
61039;BME280;46919;45.816;3.104;2022-11-15T12:29:49;96765.44;;;14.49;100.00
61039;BME280;46919;45.816;3.104;2022-11-15T12:32:37;96774.13;;;14.51;100.00
61039;BME280;46919;45.816;3.104;2022-11-15T12:35:05;96772.00;;;14.48;100.00
61039;BME280;46919;45.816;3.104;2022-11-15T12:45:01;96753.75;;;14.48;100.00
61039;BME280;46919;45.816;3.104;2022-11-15T12:47:27;96755.69;;;14.43;100.00
61039;BME280;46919;45.816;3.104;2022-11-15T12:49:53;96755.69;;;14.38;100.00
61039;BME280;46919;45.816;3.104;2022-11-15T12:52:19;96747.56;;;14.32;100.00
61039;BME280;46919;45.816;3.104;2022-11-15T12:54:55;96745.16;;;14.26;100.00
61039;BME280;46919;45.816;3.104;2022-11-15T12:57:35;96735.94;;;14.17;100.00
61039;BME280;46919;45.816;3.104;2022-11-15T13:02:41;96725.34;;;14.05;100.00
61039;BME280;46919;45.816;3.104;2022-11-15T13:17:44;96733.22;;;14.06;100.00
61039;BME280;46919;45.816;3.104;2022-11-15T13:30:49;96704.66;;;14.19;100.00
61039;BME280;46919;45.816;3.104;2022-11-15T13:33:16;96691.63;;;14.21;100.00
61039;BME280;46919;45.816;3.104;2022-11-15T13:35:47;96689.72;;;14.22;100.00
61039;BME280;46919;45.816;3.104;2022-11-15T13:40:51;96688.09;;;14.21;100.00
61039;BME280;46919;45.816;3.104;2022-11-15T13:48:51;96671.25;;;14.19;100.00
61039;BME280;46919;45.816;3.104;2022-11-15T13:51:40;96662.28;;;14.18;100.00
61039;BME280;46919;45.816;3.104;2022-11-15T13:57:02;96660.06;;;14.25;100.00
61039;BME280;46919;45.816;3.104;2022-11-15T13:59:34;96663.88;;;14.29;100.00
61039;BME280;46919;45.816;3.104;2022-11-15T14:02:12;96661.13;;;14.35;100.00
61039;BME280;46919;45.816;3.104;2022-11-15T14:04:49;96656.56;;;14.25;100.00
61039;BME280;46919;45.816;3.104;2022-11-15T14:07:20;96655.50;;;14.16;100.00
61039;BME280;46919;45.816;3.104;2022-11-15T14:09:46;96649.28;;;14.10;100.00
61039;BME280;46919;45.816;3.104;2022-11-15T14:14:55;96636.31;;;13.91;100.00
61039;BME280;46919;45.816;3.104;2022-11-15T14:19:56;96626.78;;;13.94;100.00
61039;BME280;46919;45.816;3.104;2022-11-15T14:22:23;96628.66;;;14.04;100.00
61039;BME280;46919;45.816;3.104;2022-11-15T14:28:14;96646.56;;;14.10;100.00
61039;BME280;46919;45.816;3.104;2022-11-15T14:30:42;96640.88;;;14.06;100.00
61039;BME280;46919;45.816;3.104;2022-11-15T14:33:32;96652.59;;;13.97;100.00
61039;BME280;46919;45.816;3.104;2022-11-15T14:36:03;96647.16;;;13.97;100.00
61039;BME280;46919;45.816;3.104;2022-11-15T14:38:29;96636.81;;;13.99;100.00
61039;BME280;46919;45.816;3.104;2022-11-15T14:40:55;96635.50;;;13.96;100.00
61039;BME280;46919;45.816;3.104;2022-11-15T14:43:21;96633.59;;;13.91;100.00
61039;BME280;46919;45.816;3.104;2022-11-15T14:45:46;96633.06;;;13.84;100.00
61039;BME280;46919;45.816;3.104;2022-11-15T14:48:12;96634.72;;;13.80;100.00
61039;BME280;46919;45.816;3.104;2022-11-15T14:50:37;96627.91;;;13.83;100.00
61039;BME280;46919;45.816;3.104;2022-11-15T14:53:03;96622.72;;;13.91;100.00
61039;BME280;46919;45.816;3.104;2022-11-15T14:55:34;96614.06;;;13.89;100.00
61039;BME280;46919;45.816;3.104;2022-11-15T14:58:02;96617.31;;;13.81;100.00
61039;BME280;46919;45.816;3.104;2022-11-15T15:00:29;96613.03;;;13.70;100.00
61039;BME280;46919;45.816;3.104;2022-11-15T15:02:55;96604.38;;;13.63;100.00
61039;BME280;46919;45.816;3.104;2022-11-15T15:05:23;96594.06;;;13.59;100.00